sensor_id;sensor_type;location;lat;lon;timestamp;P1;durP1;ratioP1;P2;durP2;ratioP2
78799;SDS011;68148;55.328;86.106;2023-03-14T00:00:57;9.27;;;3.63;;
78799;SDS011;68148;55.328;86.106;2023-03-14T00:03:23;7.03;;;2.28;;
78799;SDS011;68148;55.328;86.106;2023-03-14T00:05:49;13.13;;;3.88;;
78799;SDS011;68148;55.328;86.106;2023-03-14T00:08:19;10.43;;;3.70;;
78799;SDS011;68148;55.328;86.106;2023-03-14T00:10:45;7.72;;;3.03;;
78799;SDS011;68148;55.328;86.106;2023-03-14T00:13:11;6.63;;;2.13;;
78799;SDS011;68148;55.328;86.106;2023-03-14T00:15:37;7.38;;;2.40;;
78799;SDS011;68148;55.328;86.106;2023-03-14T00:18:03;11.18;;;3.65;;
78799;SDS011;68148;55.328;86.106;2023-03-14T00:20:29;6.53;;;3.47;;
78799;SDS011;68148;55.328;86.106;2023-03-14T00:22:55;11.23;;;3.65;;
78799;SDS011;68148;55.328;86.106;2023-03-14T00:25:22;7.90;;;3.75;;
78799;SDS011;68148;55.328;86.106;2023-03-14T00:27:49;10.10;;;3.47;;
78799;SDS011;68148;55.328;86.106;2023-03-14T00:30:16;15.43;;;4.47;;
78799;SDS011;68148;55.328;86.106;2023-03-14T00:32:43;10.30;;;3.25;;
78799;SDS011;68148;55.328;86.106;2023-03-14T00:35:09;9.52;;;3.22;;
78799;SDS011;68148;55.328;86.106;2023-03-14T00:37:35;12.60;;;5.07;;
78799;SDS011;68148;55.328;86.106;2023-03-14T00:40:01;8.90;;;3.75;;
78799;SDS011;68148;55.328;86.106;2023-03-14T00:42:27;18.35;;;4.47;;
78799;SDS011;68148;55.328;86.106;2023-03-14T00:44:53;11.48;;;4.88;;
78799;SDS011;68148;55.328;86.106;2023-03-14T00:47:22;10.98;;;4.28;;
78799;SDS011;68148;55.328;86.106;2023-03-14T00:49:48;9.65;;;3.55;;
78799;SDS011;68148;55.328;86.106;2023-03-14T00:52:14;16.80;;;4.20;;
78799;SDS011;68148;55.328;86.106;2023-03-14T00:54:40;15.68;;;4.25;;
78799;SDS011;68148;55.328;86.106;2023-03-14T00:57:07;9.98;;;2.58;;
78799;SDS011;68148;55.328;86.106;2023-03-14T00:59:33;11.38;;;3.22;;
78799;SDS011;68148;55.328;86.106;2023-03-14T01:01:59;8.75;;;2.83;;
78799;SDS011;68148;55.328;86.106;2023-03-14T01:04:25;7.32;;;2.00;;
78799;SDS011;68148;55.328;86.106;2023-03-14T01:06:51;7.63;;;2.50;;
78799;SDS011;68148;55.328;86.106;2023-03-14T01:09:17;9.05;;;2.90;;
78799;SDS011;68148;55.328;86.106;2023-03-14T01:11:43;10.50;;;3.08;;
78799;SDS011;68148;55.328;86.106;2023-03-14T01:14:12;16.15;;;4.07;;
78799;SDS011;68148;55.328;86.106;2023-03-14T01:16:47;14.88;;;3.80;;
78799;SDS011;68148;55.328;86.106;2023-03-14T01:19:37;17.00;;;4.75;;
78799;SDS011;68148;55.328;86.106;2023-03-14T01:22:03;20.02;;;7.53;;
78799;SDS011;68148;55.328;86.106;2023-03-14T01:24:29;20.58;;;8.90;;
78799;SDS011;68148;55.328;86.106;2023-03-14T01:26:55;21.85;;;7.63;;
78799;SDS011;68148;55.328;86.106;2023-03-14T01:29:22;19.45;;;7.40;;
78799;SDS011;68148;55.328;86.106;2023-03-14T01:31:48;17.50;;;6.78;;
78799;SDS011;68148;55.328;86.106;2023-03-14T01:34:14;21.13;;;7.00;;
78799;SDS011;68148;55.328;86.106;2023-03-14T01:36:40;15.40;;;5.88;;
78799;SDS011;68148;55.328;86.106;2023-03-14T01:39:06;17.73;;;5.45;;
78799;SDS011;68148;55.328;86.106;2023-03-14T01:41:32;13.45;;;4.55;;
78799;SDS011;68148;55.328;86.106;2023-03-14T01:43:59;11.93;;;3.65;;
78799;SDS011;68148;55.328;86.106;2023-03-14T01:49:01;9.05;;;3.33;;
78799;SDS011;68148;55.328;86.106;2023-03-14T01:54:34;8.30;;;2.60;;
78799;SDS011;68148;55.328;86.106;2023-03-14T01:57:17;8.82;;;2.92;;
78799;SDS011;68148;55.328;86.106;2023-03-14T01:59:49;9.68;;;3.17;;
78799;SDS011;68148;55.328;86.106;2023-03-14T02:02:22;5.22;;;2.10;;
78799;SDS011;68148;55.328;86.106;2023-03-14T02:04:51;6.07;;;2.72;;
78799;SDS011;68148;55.328;86.106;2023-03-14T02:07:44;7.65;;;3.03;;
78799;SDS011;68148;55.328;86.106;2023-03-14T02:10:12;6.45;;;2.85;;
78799;SDS011;68148;55.328;86.106;2023-03-14T02:12:38;9.48;;;2.30;;
78799;SDS011;68148;55.328;86.106;2023-03-14T02:15:05;8.90;;;2.80;;
78799;SDS011;68148;55.328;86.106;2023-03-14T02:17:32;9.70;;;3.05;;
78799;SDS011;68148;55.328;86.106;2023-03-14T02:27:49;4.30;;;1.63;;
78799;SDS011;68148;55.328;86.106;2023-03-14T02:30:22;2.72;;;1.27;;
78799;SDS011;68148;55.328;86.106;2023-03-14T02:35:59;14.27;;;2.70;;
78799;SDS011;68148;55.328;86.106;2023-03-14T02:41:14;7.45;;;2.03;;
78799;SDS011;68148;55.328;86.106;2023-03-14T02:43:42;5.72;;;2.63;;
78799;SDS011;68148;55.328;86.106;2023-03-14T02:46:09;4.22;;;1.63;;
78799;SDS011;68148;55.328;86.106;2023-03-14T02:51:11;7.60;;;1.40;;
78799;SDS011;68148;55.328;86.106;2023-03-14T02:53:37;4.60;;;1.45;;
78799;SDS011;68148;55.328;86.106;2023-03-14T02:56:03;5.15;;;1.55;;
78799;SDS011;68148;55.328;86.106;2023-03-14T02:58:31;2.58;;;0.90;;
78799;SDS011;68148;55.328;86.106;2023-03-14T03:00:57;3.33;;;1.25;;
78799;SDS011;68148;55.328;86.106;2023-03-14T03:03:23;2.83;;;1.20;;
78799;SDS011;68148;55.328;86.106;2023-03-14T03:05:49;14.13;;;2.08;;
78799;SDS011;68148;55.328;86.106;2023-03-14T03:08:18;5.40;;;1.13;;
78799;SDS011;68148;55.328;86.106;2023-03-14T03:10:45;3.65;;;1.40;;
78799;SDS011;68148;55.328;86.106;2023-03-14T03:13:11;2.63;;;1.27;;
78799;SDS011;68148;55.328;86.106;2023-03-14T03:15:41;4.78;;;1.67;;
78799;SDS011;68148;55.328;86.106;2023-03-14T03:18:09;4.35;;;1.40;;
78799;SDS011;68148;55.328;86.106;2023-03-14T03:20:35;3.70;;;0.93;;
78799;SDS011;68148;55.328;86.106;2023-03-14T03:23:01;4.28;;;1.50;;
78799;SDS011;68148;55.328;86.106;2023-03-14T03:25:27;5.32;;;1.33;;
78799;SDS011;68148;55.328;86.106;2023-03-14T03:27:54;2.90;;;1.45;;
78799;SDS011;68148;55.328;86.106;2023-03-14T03:30:21;3.20;;;1.25;;
78799;SDS011;68148;55.328;86.106;2023-03-14T03:32:47;2.72;;;1.20;;
78799;SDS011;68148;55.328;86.106;2023-03-14T03:35:13;4.22;;;1.75;;
78799;SDS011;68148;55.328;86.106;2023-03-14T03:37:41;4.57;;;1.02;;
78799;SDS011;68148;55.328;86.106;2023-03-14T03:40:07;5.30;;;1.23;;
78799;SDS011;68148;55.328;86.106;2023-03-14T03:42:33;2.95;;;1.30;;
78799;SDS011;68148;55.328;86.106;2023-03-14T03:45:00;3.50;;;1.38;;
78799;SDS011;68148;55.328;86.106;2023-03-14T03:47:27;3.88;;;1.17;;
78799;SDS011;68148;55.328;86.106;2023-03-14T03:49:53;1.42;;;0.52;;
78799;SDS011;68148;55.328;86.106;2023-03-14T03:52:19;4.80;;;0.68;;
78799;SDS011;68148;55.328;86.106;2023-03-14T03:54:45;2.50;;;1.25;;
78799;SDS011;68148;55.328;86.106;2023-03-14T03:57:11;2.28;;;0.80;;
78799;SDS011;68148;55.328;86.106;2023-03-14T03:59:37;2.80;;;1.10;;
78799;SDS011;68148;55.328;86.106;2023-03-14T04:02:03;3.58;;;0.90;;
78799;SDS011;68148;55.328;86.106;2023-03-14T04:04:29;3.72;;;1.60;;
78799;SDS011;68148;55.328;86.106;2023-03-14T04:06:55;4.43;;;2.10;;
78799;SDS011;68148;55.328;86.106;2023-03-14T04:09:21;4.72;;;1.10;;
78799;SDS011;68148;55.328;86.106;2023-03-14T04:11:47;6.97;;;1.60;;
78799;SDS011;68148;55.328;86.106;2023-03-14T04:14:13;4.30;;;1.58;;
78799;SDS011;68148;55.328;86.106;2023-03-14T04:16:39;2.03;;;1.10;;
78799;SDS011;68148;55.328;86.106;2023-03-14T04:19:05;8.00;;;2.03;;
78799;SDS011;68148;55.328;86.106;2023-03-14T04:21:31;5.25;;;1.48;;
78799;SDS011;68148;55.328;86.106;2023-03-14T04:23:57;6.25;;;1.30;;
78799;SDS011;68148;55.328;86.106;2023-03-14T04:26:23;7.18;;;1.45;;
78799;SDS011;68148;55.328;86.106;2023-03-14T04:28:49;9.10;;;2.08;;
78799;SDS011;68148;55.328;86.106;2023-03-14T04:31:17;4.85;;;1.40;;
78799;SDS011;68148;55.328;86.106;2023-03-14T04:33:44;3.20;;;1.27;;
78799;SDS011;68148;55.328;86.106;2023-03-14T04:36:11;3.35;;;1.15;;
78799;SDS011;68148;55.328;86.106;2023-03-14T04:38:38;5.32;;;1.33;;
78799;SDS011;68148;55.328;86.106;2023-03-14T04:41:04;4.45;;;2.72;;
78799;SDS011;68148;55.328;86.106;2023-03-14T04:43:30;4.47;;;1.35;;
78799;SDS011;68148;55.328;86.106;2023-03-14T04:45:57;5.05;;;1.35;;
78799;SDS011;68148;55.328;86.106;2023-03-14T04:48:25;3.33;;;0.90;;
78799;SDS011;68148;55.328;86.106;2023-03-14T04:50:52;3.60;;;0.90;;
78799;SDS011;68148;55.328;86.106;2023-03-14T04:53:19;3.20;;;1.27;;
78799;SDS011;68148;55.328;86.106;2023-03-14T04:55:48;3.95;;;1.60;;
78799;SDS011;68148;55.328;86.106;2023-03-14T04:58:19;3.85;;;1.00;;
78799;SDS011;68148;55.328;86.106;2023-03-14T05:00:49;4.13;;;1.52;;
78799;SDS011;68148;55.328;86.106;2023-03-14T05:03:16;2.15;;;1.05;;
78799;SDS011;68148;55.328;86.106;2023-03-14T05:05:43;1.95;;;0.80;;
78799;SDS011;68148;55.328;86.106;2023-03-14T05:08:09;2.65;;;0.90;;
78799;SDS011;68148;55.328;86.106;2023-03-14T05:10:36;2.22;;;0.98;;
78799;SDS011;68148;55.328;86.106;2023-03-14T05:13:03;3.65;;;0.90;;
78799;SDS011;68148;55.328;86.106;2023-03-14T05:15:29;2.65;;;1.00;;
78799;SDS011;68148;55.328;86.106;2023-03-14T05:17:56;2.67;;;1.00;;
78799;SDS011;68148;55.328;86.106;2023-03-14T05:20:22;7.07;;;0.95;;
78799;SDS011;68148;55.328;86.106;2023-03-14T05:22:48;3.88;;;1.08;;
78799;SDS011;68148;55.328;86.106;2023-03-14T05:25:14;4.50;;;0.85;;
78799;SDS011;68148;55.328;86.106;2023-03-14T05:27:43;5.00;;;1.10;;
78799;SDS011;68148;55.328;86.106;2023-03-14T05:30:09;3.22;;;0.90;;
78799;SDS011;68148;55.328;86.106;2023-03-14T05:32:35;2.47;;;0.85;;
78799;SDS011;68148;55.328;86.106;2023-03-14T05:35:01;5.00;;;1.13;;
78799;SDS011;68148;55.328;86.106;2023-03-14T05:37:27;3.22;;;1.30;;
78799;SDS011;68148;55.328;86.106;2023-03-14T05:39:53;3.05;;;0.77;;
78799;SDS011;68148;55.328;86.106;2023-03-14T05:42:19;2.92;;;0.90;;
78799;SDS011;68148;55.328;86.106;2023-03-14T05:44:46;3.17;;;0.90;;
78799;SDS011;68148;55.328;86.106;2023-03-14T05:47:12;1.65;;;0.70;;
78799;SDS011;68148;55.328;86.106;2023-03-14T05:49:37;4.60;;;1.35;;
78799;SDS011;68148;55.328;86.106;2023-03-14T05:52:03;6.00;;;0.98;;
78799;SDS011;68148;55.328;86.106;2023-03-14T05:54:30;6.90;;;0.60;;
78799;SDS011;68148;55.328;86.106;2023-03-14T05:56:56;3.67;;;0.82;;
78799;SDS011;68148;55.328;86.106;2023-03-14T05:59:22;1.73;;;0.70;;
78799;SDS011;68148;55.328;86.106;2023-03-14T06:01:48;3.35;;;1.00;;
78799;SDS011;68148;55.328;86.106;2023-03-14T06:04:14;2.30;;;0.75;;
78799;SDS011;68148;55.328;86.106;2023-03-14T06:06:40;6.90;;;1.13;;
78799;SDS011;68148;55.328;86.106;2023-03-14T06:09:06;3.88;;;1.17;;
78799;SDS011;68148;55.328;86.106;2023-03-14T06:11:32;2.33;;;1.05;;
78799;SDS011;68148;55.328;86.106;2023-03-14T06:13:58;4.82;;;1.40;;
78799;SDS011;68148;55.328;86.106;2023-03-14T06:16:23;3.17;;;0.98;;
78799;SDS011;68148;55.328;86.106;2023-03-14T06:18:49;4.68;;;1.23;;
78799;SDS011;68148;55.328;86.106;2023-03-14T06:21:16;3.67;;;1.50;;
78799;SDS011;68148;55.328;86.106;2023-03-14T06:23:43;4.13;;;1.10;;
78799;SDS011;68148;55.328;86.106;2023-03-14T06:26:08;3.38;;;1.02;;
78799;SDS011;68148;55.328;86.106;2023-03-14T06:28:36;2.20;;;1.20;;
78799;SDS011;68148;55.328;86.106;2023-03-14T06:31:02;3.63;;;0.60;;
78799;SDS011;68148;55.328;86.106;2023-03-14T06:33:28;4.88;;;1.55;;
78799;SDS011;68148;55.328;86.106;2023-03-14T06:35:54;1.92;;;0.82;;
78799;SDS011;68148;55.328;86.106;2023-03-14T06:38:20;4.25;;;1.35;;
78799;SDS011;68148;55.328;86.106;2023-03-14T06:40:46;1.65;;;0.63;;
78799;SDS011;68148;55.328;86.106;2023-03-14T06:43:12;4.45;;;1.23;;
78799;SDS011;68148;55.328;86.106;2023-03-14T06:45:38;2.10;;;0.68;;
78799;SDS011;68148;55.328;86.106;2023-03-14T06:48:04;2.22;;;1.05;;
78799;SDS011;68148;55.328;86.106;2023-03-14T06:50:30;1.95;;;0.80;;
78799;SDS011;68148;55.328;86.106;2023-03-14T06:52:56;4.30;;;1.20;;
78799;SDS011;68148;55.328;86.106;2023-03-14T06:55:22;3.20;;;1.02;;
78799;SDS011;68148;55.328;86.106;2023-03-14T06:57:48;4.10;;;1.17;;
78799;SDS011;68148;55.328;86.106;2023-03-14T07:00:16;2.22;;;1.27;;
78799;SDS011;68148;55.328;86.106;2023-03-14T07:02:42;3.85;;;1.30;;
78799;SDS011;68148;55.328;86.106;2023-03-14T07:05:08;5.00;;;1.08;;
78799;SDS011;68148;55.328;86.106;2023-03-14T07:07:34;3.97;;;1.20;;
78799;SDS011;68148;55.328;86.106;2023-03-14T07:10:00;5.15;;;1.35;;
78799;SDS011;68148;55.328;86.106;2023-03-14T07:12:26;4.57;;;1.13;;
78799;SDS011;68148;55.328;86.106;2023-03-14T07:14:52;3.10;;;1.50;;
78799;SDS011;68148;55.328;86.106;2023-03-14T07:17:18;4.30;;;1.25;;
78799;SDS011;68148;55.328;86.106;2023-03-14T07:19:44;4.57;;;1.45;;
78799;SDS011;68148;55.328;86.106;2023-03-14T07:22:12;4.90;;;1.38;;
78799;SDS011;68148;55.328;86.106;2023-03-14T07:24:38;4.88;;;1.20;;
78799;SDS011;68148;55.328;86.106;2023-03-14T07:27:04;2.78;;;1.10;;
78799;SDS011;68148;55.328;86.106;2023-03-14T07:29:30;9.07;;;0.98;;
78799;SDS011;68148;55.328;86.106;2023-03-14T07:31:56;1.92;;;0.82;;
78799;SDS011;68148;55.328;86.106;2023-03-14T07:34:22;4.18;;;1.17;;
78799;SDS011;68148;55.328;86.106;2023-03-14T07:36:48;3.33;;;1.10;;
78799;SDS011;68148;55.328;86.106;2023-03-14T07:39:14;2.65;;;0.82;;
78799;SDS011;68148;55.328;86.106;2023-03-14T07:41:40;3.83;;;1.60;;
78799;SDS011;68148;55.328;86.106;2023-03-14T07:44:06;4.20;;;1.52;;
78799;SDS011;68148;55.328;86.106;2023-03-14T07:46:32;3.97;;;1.88;;
78799;SDS011;68148;55.328;86.106;2023-03-14T07:48:58;4.22;;;1.60;;
78799;SDS011;68148;55.328;86.106;2023-03-14T07:51:25;3.65;;;1.48;;
78799;SDS011;68148;55.328;86.106;2023-03-14T07:53:51;4.45;;;1.65;;
78799;SDS011;68148;55.328;86.106;2023-03-14T07:56:17;6.95;;;2.08;;
78799;SDS011;68148;55.328;86.106;2023-03-14T07:58:43;5.53;;;1.55;;
78799;SDS011;68148;55.328;86.106;2023-03-14T08:01:09;4.70;;;1.38;;
78799;SDS011;68148;55.328;86.106;2023-03-14T08:03:35;3.33;;;1.30;;
78799;SDS011;68148;55.328;86.106;2023-03-14T08:06:00;6.38;;;1.75;;
78799;SDS011;68148;55.328;86.106;2023-03-14T08:08:26;7.85;;;2.42;;
78799;SDS011;68148;55.328;86.106;2023-03-14T08:10:52;4.20;;;1.38;;
78799;SDS011;68148;55.328;86.106;2023-03-14T08:13:18;4.63;;;1.48;;
78799;SDS011;68148;55.328;86.106;2023-03-14T08:15:49;2.67;;;0.98;;
78799;SDS011;68148;55.328;86.106;2023-03-14T08:18:15;4.78;;;1.60;;
78799;SDS011;68148;55.328;86.106;2023-03-14T08:20:41;6.90;;;1.52;;
78799;SDS011;68148;55.328;86.106;2023-03-14T08:23:07;5.07;;;1.30;;
78799;SDS011;68148;55.328;86.106;2023-03-14T08:25:33;6.38;;;1.50;;
78799;SDS011;68148;55.328;86.106;2023-03-14T08:27:59;6.40;;;1.98;;
78799;SDS011;68148;55.328;86.106;2023-03-14T08:30:25;3.70;;;1.33;;
78799;SDS011;68148;55.328;86.106;2023-03-14T08:32:51;5.30;;;1.77;;
78799;SDS011;68148;55.328;86.106;2023-03-14T08:35:17;4.43;;;1.70;;
78799;SDS011;68148;55.328;86.106;2023-03-14T08:37:44;4.20;;;1.92;;
78799;SDS011;68148;55.328;86.106;2023-03-14T08:40:10;6.32;;;1.25;;
78799;SDS011;68148;55.328;86.106;2023-03-14T08:42:37;3.88;;;1.02;;
78799;SDS011;68148;55.328;86.106;2023-03-14T08:45:04;3.47;;;1.38;;
78799;SDS011;68148;55.328;86.106;2023-03-14T08:47:31;3.50;;;1.20;;
78799;SDS011;68148;55.328;86.106;2023-03-14T08:49:58;5.47;;;1.42;;
78799;SDS011;68148;55.328;86.106;2023-03-14T08:52:24;3.58;;;1.27;;
78799;SDS011;68148;55.328;86.106;2023-03-14T08:54:50;6.03;;;1.67;;
78799;SDS011;68148;55.328;86.106;2023-03-14T08:57:16;6.45;;;2.10;;
78799;SDS011;68148;55.328;86.106;2023-03-14T08:59:42;11.40;;;2.67;;
78799;SDS011;68148;55.328;86.106;2023-03-14T09:02:11;3.00;;;1.35;;
78799;SDS011;68148;55.328;86.106;2023-03-14T09:04:37;3.90;;;1.30;;
78799;SDS011;68148;55.328;86.106;2023-03-14T09:07:04;4.13;;;1.45;;
78799;SDS011;68148;55.328;86.106;2023-03-14T09:09:30;3.85;;;1.20;;
78799;SDS011;68148;55.328;86.106;2023-03-14T09:11:56;5.65;;;1.67;;
78799;SDS011;68148;55.328;86.106;2023-03-14T09:14:22;3.42;;;1.10;;
78799;SDS011;68148;55.328;86.106;2023-03-14T09:16:48;5.75;;;1.73;;
78799;SDS011;68148;55.328;86.106;2023-03-14T09:19:15;4.55;;;1.45;;
78799;SDS011;68148;55.328;86.106;2023-03-14T09:21:41;3.70;;;1.33;;
78799;SDS011;68148;55.328;86.106;2023-03-14T09:24:06;3.63;;;1.48;;
78799;SDS011;68148;55.328;86.106;2023-03-14T09:26:32;3.25;;;1.27;;
78799;SDS011;68148;55.328;86.106;2023-03-14T09:28:58;3.67;;;1.30;;
78799;SDS011;68148;55.328;86.106;2023-03-14T09:31:24;5.13;;;1.73;;
78799;SDS011;68148;55.328;86.106;2023-03-14T09:33:50;5.93;;;1.05;;
78799;SDS011;68148;55.328;86.106;2023-03-14T09:36:16;4.20;;;1.00;;
78799;SDS011;68148;55.328;86.106;2023-03-14T09:38:42;4.05;;;0.93;;
78799;SDS011;68148;55.328;86.106;2023-03-14T09:41:14;3.78;;;1.00;;
78799;SDS011;68148;55.328;86.106;2023-03-14T09:43:56;3.92;;;1.30;;
78799;SDS011;68148;55.328;86.106;2023-03-14T09:46:37;2.80;;;1.17;;
78799;SDS011;68148;55.328;86.106;2023-03-14T09:49:16;3.20;;;1.10;;
78799;SDS011;68148;55.328;86.106;2023-03-14T09:51:56;4.20;;;1.25;;
78799;SDS011;68148;55.328;86.106;2023-03-14T09:54:49;2.25;;;1.17;;
78799;SDS011;68148;55.328;86.106;2023-03-14T09:57:18;3.50;;;1.05;;
78799;SDS011;68148;55.328;86.106;2023-03-14T09:59:47;4.13;;;1.02;;
78799;SDS011;68148;55.328;86.106;2023-03-14T10:04:47;1.95;;;0.85;;
78799;SDS011;68148;55.328;86.106;2023-03-14T10:07:15;1.77;;;0.80;;
78799;SDS011;68148;55.328;86.106;2023-03-14T10:09:44;5.32;;;1.00;;
78799;SDS011;68148;55.328;86.106;2023-03-14T10:12:14;2.40;;;1.20;;
78799;SDS011;68148;55.328;86.106;2023-03-14T10:14:47;4.38;;;1.00;;
78799;SDS011;68148;55.328;86.106;2023-03-14T10:17:15;2.50;;;1.30;;
78799;SDS011;68148;55.328;86.106;2023-03-14T10:19:56;5.43;;;0.95;;
78799;SDS011;68148;55.328;86.106;2023-03-14T10:22:24;3.58;;;1.42;;
78799;SDS011;68148;55.328;86.106;2023-03-14T10:24:55;4.55;;;0.82;;
78799;SDS011;68148;55.328;86.106;2023-03-14T10:27:32;2.83;;;0.73;;
78799;SDS011;68148;55.328;86.106;2023-03-14T10:30:00;2.45;;;0.98;;
78799;SDS011;68148;55.328;86.106;2023-03-14T10:32:37;5.50;;;1.50;;
78799;SDS011;68148;55.328;86.106;2023-03-14T10:35:06;3.53;;;1.38;;
78799;SDS011;68148;55.328;86.106;2023-03-14T10:37:34;3.67;;;1.30;;
78799;SDS011;68148;55.328;86.106;2023-03-14T10:40:02;4.40;;;1.10;;
78799;SDS011;68148;55.328;86.106;2023-03-14T10:42:29;6.40;;;1.33;;
78799;SDS011;68148;55.328;86.106;2023-03-14T10:45:05;6.18;;;1.60;;
78799;SDS011;68148;55.328;86.106;2023-03-14T10:47:51;3.05;;;1.13;;
78799;SDS011;68148;55.328;86.106;2023-03-14T10:50:27;7.95;;;1.30;;
78799;SDS011;68148;55.328;86.106;2023-03-14T10:52:56;3.35;;;0.95;;
78799;SDS011;68148;55.328;86.106;2023-03-14T10:55:26;2.92;;;1.00;;
78799;SDS011;68148;55.328;86.106;2023-03-14T10:57:53;8.68;;;1.35;;
78799;SDS011;68148;55.328;86.106;2023-03-14T11:00:22;3.15;;;1.40;;
78799;SDS011;68148;55.328;86.106;2023-03-14T11:02:58;6.63;;;1.58;;
78799;SDS011;68148;55.328;86.106;2023-03-14T11:05:41;3.25;;;1.13;;
78799;SDS011;68148;55.328;86.106;2023-03-14T11:10:48;5.40;;;1.20;;
78799;SDS011;68148;55.328;86.106;2023-03-14T11:32:07;2.65;;;0.63;;
78799;SDS011;68148;55.328;86.106;2023-03-14T11:37:17;3.20;;;0.85;;
78799;SDS011;68148;55.328;86.106;2023-03-14T11:39:47;4.22;;;1.20;;
78799;SDS011;68148;55.328;86.106;2023-03-14T11:42:24;3.38;;;0.88;;
78799;SDS011;68148;55.328;86.106;2023-03-14T11:44:53;2.88;;;1.00;;
78799;SDS011;68148;55.328;86.106;2023-03-14T11:47:23;3.17;;;1.40;;
78799;SDS011;68148;55.328;86.106;2023-03-14T11:50:12;4.28;;;1.67;;
78799;SDS011;68148;55.328;86.106;2023-03-14T11:53:01;5.40;;;2.20;;
78799;SDS011;68148;55.328;86.106;2023-03-14T11:55:35;4.80;;;1.80;;
78799;SDS011;68148;55.328;86.106;2023-03-14T11:58:50;4.63;;;2.03;;
78799;SDS011;68148;55.328;86.106;2023-03-14T12:01:01;5.78;;;1.60;;
78799;SDS011;68148;55.328;86.106;2023-03-14T12:03:34;5.68;;;2.20;;
78799;SDS011;68148;55.328;86.106;2023-03-14T12:06:16;6.30;;;1.75;;
78799;SDS011;68148;55.328;86.106;2023-03-14T12:08:55;6.20;;;2.22;;
78799;SDS011;68148;55.328;86.106;2023-03-14T12:11:31;7.72;;;2.28;;
78799;SDS011;68148;55.328;86.106;2023-03-14T12:14:14;7.68;;;2.72;;
78799;SDS011;68148;55.328;86.106;2023-03-14T12:16:47;6.70;;;2.35;;
78799;SDS011;68148;55.328;86.106;2023-03-14T12:19:21;9.45;;;2.63;;
78799;SDS011;68148;55.328;86.106;2023-03-14T12:24:28;6.93;;;2.10;;
78799;SDS011;68148;55.328;86.106;2023-03-14T12:26:56;8.40;;;2.30;;
78799;SDS011;68148;55.328;86.106;2023-03-14T12:29:24;6.75;;;2.15;;
78799;SDS011;68148;55.328;86.106;2023-03-14T12:34:30;11.57;;;2.78;;
78799;SDS011;68148;55.328;86.106;2023-03-14T12:42:34;9.30;;;1.60;;
78799;SDS011;68148;55.328;86.106;2023-03-14T12:47:52;6.22;;;1.25;;
78799;SDS011;68148;55.328;86.106;2023-03-14T12:50:21;5.45;;;1.20;;
78799;SDS011;68148;55.328;86.106;2023-03-14T12:58:39;8.73;;;1.83;;
78799;SDS011;68148;55.328;86.106;2023-03-14T13:01:17;11.30;;;1.75;;
78799;SDS011;68148;55.328;86.106;2023-03-14T13:03:45;5.50;;;1.65;;
78799;SDS011;68148;55.328;86.106;2023-03-14T13:11:53;9.40;;;1.75;;
78799;SDS011;68148;55.328;86.106;2023-03-14T13:14:19;11.48;;;2.88;;
78799;SDS011;68148;55.328;86.106;2023-03-14T13:16:46;14.70;;;2.47;;
78799;SDS011;68148;55.328;86.106;2023-03-14T13:19:18;23.73;;;2.88;;
78799;SDS011;68148;55.328;86.106;2023-03-14T13:21:49;8.07;;;1.85;;
78799;SDS011;68148;55.328;86.106;2023-03-14T13:24:25;6.47;;;2.72;;
78799;SDS011;68148;55.328;86.106;2023-03-14T13:26:53;11.93;;;2.42;;
78799;SDS011;68148;55.328;86.106;2023-03-14T13:29:21;14.15;;;1.85;;
78799;SDS011;68148;55.328;86.106;2023-03-14T13:31:51;9.85;;;3.10;;
78799;SDS011;68148;55.328;86.106;2023-03-14T13:34:19;6.82;;;2.60;;
78799;SDS011;68148;55.328;86.106;2023-03-14T13:36:46;5.72;;;2.03;;
78799;SDS011;68148;55.328;86.106;2023-03-14T13:39:13;11.65;;;2.42;;
78799;SDS011;68148;55.328;86.106;2023-03-14T13:41:42;10.80;;;2.97;;
78799;SDS011;68148;55.328;86.106;2023-03-14T13:44:23;11.32;;;2.80;;
78799;SDS011;68148;55.328;86.106;2023-03-14T13:47:15;18.48;;;3.13;;
78799;SDS011;68148;55.328;86.106;2023-03-14T13:49:43;11.60;;;4.18;;
78799;SDS011;68148;55.328;86.106;2023-03-14T13:54:53;22.48;;;5.28;;
78799;SDS011;68148;55.328;86.106;2023-03-14T13:57:20;20.23;;;5.70;;
78799;SDS011;68148;55.328;86.106;2023-03-14T14:00:05;26.55;;;7.07;;
78799;SDS011;68148;55.328;86.106;2023-03-14T14:02:34;21.08;;;7.00;;
78799;SDS011;68148;55.328;86.106;2023-03-14T14:05:03;23.00;;;7.93;;
78799;SDS011;68148;55.328;86.106;2023-03-14T14:07:30;24.58;;;8.60;;
78799;SDS011;68148;55.328;86.106;2023-03-14T14:09:57;19.63;;;6.78;;
78799;SDS011;68148;55.328;86.106;2023-03-14T14:12:38;28.40;;;8.23;;
78799;SDS011;68148;55.328;86.106;2023-03-14T14:17:52;38.33;;;11.43;;
78799;SDS011;68148;55.328;86.106;2023-03-14T14:20:25;48.63;;;13.48;;
78799;SDS011;68148;55.328;86.106;2023-03-14T14:22:55;39.50;;;12.25;;
78799;SDS011;68148;55.328;86.106;2023-03-14T14:25:21;33.88;;;11.43;;
78799;SDS011;68148;55.328;86.106;2023-03-14T14:27:48;45.30;;;12.02;;
78799;SDS011;68148;55.328;86.106;2023-03-14T14:32:47;44.97;;;12.65;;
78799;SDS011;68148;55.328;86.106;2023-03-14T14:37:48;60.08;;;18.67;;
78799;SDS011;68148;55.328;86.106;2023-03-14T14:40:25;72.03;;;21.45;;
78799;SDS011;68148;55.328;86.106;2023-03-14T14:42:53;81.65;;;26.10;;
78799;SDS011;68148;55.328;86.106;2023-03-14T14:45:21;82.20;;;24.15;;
78799;SDS011;68148;55.328;86.106;2023-03-14T14:47:50;93.60;;;27.52;;
78799;SDS011;68148;55.328;86.106;2023-03-14T14:50:33;87.65;;;26.42;;
78799;SDS011;68148;55.328;86.106;2023-03-14T14:56:06;62.38;;;19.42;;
78799;SDS011;68148;55.328;86.106;2023-03-14T14:58:43;64.75;;;18.67;;
78799;SDS011;68148;55.328;86.106;2023-03-14T15:01:15;56.20;;;17.90;;
78799;SDS011;68148;55.328;86.106;2023-03-14T15:03:44;59.83;;;17.50;;
78799;SDS011;68148;55.328;86.106;2023-03-14T15:08:39;50.70;;;16.65;;
78799;SDS011;68148;55.328;86.106;2023-03-14T15:11:22;57.10;;;18.58;;
78799;SDS011;68148;55.328;86.106;2023-03-14T15:13:51;73.88;;;19.98;;
78799;SDS011;68148;55.328;86.106;2023-03-14T15:16:21;70.00;;;20.48;;
78799;SDS011;68148;55.328;86.106;2023-03-14T15:18:55;58.97;;;18.85;;
78799;SDS011;68148;55.328;86.106;2023-03-14T15:21:23;69.30;;;20.60;;
78799;SDS011;68148;55.328;86.106;2023-03-14T15:23:50;65.45;;;20.42;;
78799;SDS011;68148;55.328;86.106;2023-03-14T15:26:18;54.00;;;16.65;;
78799;SDS011;68148;55.328;86.106;2023-03-14T15:28:46;62.10;;;17.70;;
78799;SDS011;68148;55.328;86.106;2023-03-14T15:31:12;62.20;;;16.80;;
78799;SDS011;68148;55.328;86.106;2023-03-14T15:33:39;54.33;;;17.15;;
78799;SDS011;68148;55.328;86.106;2023-03-14T15:36:06;50.53;;;16.10;;
78799;SDS011;68148;55.328;86.106;2023-03-14T15:38:43;69.25;;;18.73;;
78799;SDS011;68148;55.328;86.106;2023-03-14T15:41:09;57.30;;;17.85;;
78799;SDS011;68148;55.328;86.106;2023-03-14T15:43:35;54.45;;;15.02;;
78799;SDS011;68148;55.328;86.106;2023-03-14T15:46:02;44.40;;;12.10;;
78799;SDS011;68148;55.328;86.106;2023-03-14T15:48:28;40.72;;;13.88;;
78799;SDS011;68148;55.328;86.106;2023-03-14T15:50:54;54.58;;;16.38;;
78799;SDS011;68148;55.328;86.106;2023-03-14T15:53:20;54.92;;;16.35;;
78799;SDS011;68148;55.328;86.106;2023-03-14T15:55:46;61.25;;;17.40;;
78799;SDS011;68148;55.328;86.106;2023-03-14T15:58:15;96.60;;;27.73;;
78799;SDS011;68148;55.328;86.106;2023-03-14T16:00:42;58.53;;;16.92;;
78799;SDS011;68148;55.328;86.106;2023-03-14T16:03:08;57.90;;;19.08;;
78799;SDS011;68148;55.328;86.106;2023-03-14T16:05:34;111.90;;;31.67;;